Flight Track Log - Related Links

Times and Time Zones

All times are in EDT time to prevent confusion due to time zone crossing. See the N100MJ flight status page for this flight to view local times or setup timezone preferences in your user account.

Time Position Orientation Groundspeed Altitude Reporting Facility
EDT Latitude Longitude Course Direction KTS MPH feet Rate Location/Type
Wed 02:03:43 PM 37.7339 -76.9467 197° South 153 176 9,400  Level Washington Center
Wed 02:04:41 PM 37.6919 -76.9644 199° South 153 176 9,900 254 Climbing Washington Center
Wed 02:05:41 PM 37.6458 -76.9844 199° South 165 190 9,900  Level Washington Center
Wed 02:06:00 PM 37.7554 -76.9210 197° South  Level FlightAware Approximate
Wed 02:06:42 PM 37.5997 -77.0047 199° South 176 203 9,900  Level Washington Center
Wed 02:07:00 PM 37.7165 -76.9355 197° South  Level FlightAware Approximate
Wed 02:07:43 PM 37.5536 -77.0247 199° South 176 203 9,900  Level Washington Center
Wed 02:08:00 PM 37.6776 -76.9501 197° South  Level FlightAware Approximate
Wed 02:08:41 PM 37.5075 -77.0447 199° South 176 203 9,900  Level Washington Center
Wed 02:09:42 PM 37.4633 -77.0622 197° South 181 208 9,900  Level Washington Center
Wed 02:10:43 PM 37.4131 -77.0875 202° Southwest 181 208 9,900  Level Washington Center
Wed 02:11:41 PM 37.3897 -77.1261 233° Southwest 162 186 9,900  Level Washington Center
Wed 02:12:41 PM 37.3581 -77.1594 220° Southwest 162 186 9,900  Level Washington Center
Wed 02:13:41 PM 37.3219 -77.1953 218° Southwest 162 186 9,900  Level Washington Center
Wed 02:14:42 PM 37.2881 -77.2311 220° Southwest 162 186 9,900  Level Washington Center
Wed 02:15:42 PM 37.2542 -77.2697 222° Southwest 162 186 9,900  Level Washington Center
Wed 02:16:41 PM 37.2225 -77.3081 224° Southwest 162 186 9,900  Level Washington Center
Wed 02:17:41 PM 37.1886 -77.3411 218° Southwest 162 186 9,900  Level Washington Center
Wed 02:18:42 PM 37.1547 -77.3794 222° Southwest 162 186 9,900  Level Washington Center
Wed 02:19:43 PM 37.1228 -77.4153 222° Southwest 162 186 9,900  Level Washington Center
Wed 02:20:43 PM 37.0889 -77.4508 220° Southwest 162 186 9,900  Level Washington Center
Wed 02:21:41 PM 37.0550 -77.4864 220° Southwest 162 186 9,900  Level Washington Center
Wed 02:22:41 PM 37.0208 -77.5247 222° Southwest 162 186 9,900  Level Washington Center
Wed 02:23:42 PM 36.9847 -77.5653 222° Southwest 162 186 9,900  Level Washington Center
Wed 02:24:43 PM 36.9508 -77.6008 220° Southwest 162 186 9,900  Level Washington Center
Wed 02:25:41 PM 36.9189 -77.6339 220° Southwest 162 186 9,900  Level Washington Center
Wed 02:26:41 PM 36.8850 -77.6694 220° Southwest 162 186 9,900  Level Washington Center
Wed 02:27:42 PM 36.8531 -77.7075 224° Southwest 162 186 9,900  Level Washington Center
Wed 02:28:43 PM 36.8211 -77.7403 219° Southwest 162 186 9,900  Level Washington Center
Wed 02:29:41 PM 36.7872 -77.7756 220° Southwest 162 186 9,900  Level Washington Center
Wed 02:30:42 PM 36.7550 -77.8136 223° Southwest 162 186 9,900  Level Washington Center
Wed 02:31:42 PM 36.7211 -77.8489 220° Southwest 162 186 9,900  Level Washington Center
Wed 02:32:42 PM 36.6892 -77.8842 222° Southwest 162 186 9,900 49 Level Washington Center
Wed 02:33:44 PM 36.6531 -77.9194 218° Southwest 162 186 10,000 50 Climbing Washington Center
Wed 02:34:41 PM 36.6211 -77.9547 222° Southwest 162 186 10,000  Level Washington Center
Wed 02:35:42 PM 36.5869 -77.9925 222° Southwest 162 186 10,000  Level Washington Center
Wed 02:36:43 PM 36.5506 -78.0275 218° Southwest 162 186 10,000  Level Washington Center
Wed 02:37:43 PM 36.5186 -78.0653 224° Southwest 162 186 10,000  Level Washington Center
Wed 02:38:35 PM 36.4867 -78.1006 222° Southwest 165 190 10,000  Level Washington Center
Wed 02:39:12 PM 36.4653 -78.1206 217° Southwest 164 189 10,000  Level Washington Center
Wed 02:39:42 PM 36.4525 -78.1381 228° Southwest 162 186 10,000  Level Washington Center
Wed 02:40:06 PM 36.4333 -78.1556 216° Southwest 163 188 10,000  Level Washington Center
Wed 02:40:43 PM 36.4183 -78.1731 223° Southwest 167 192 10,000  Level Washington Center
Wed 02:41:13 PM 36.3928 -78.1956 215° Southwest 166 191 10,000  Level Washington Center
Wed 02:41:41 PM 36.3778 -78.2131 223° Southwest 167 192 10,000  Level Washington Center
Wed 02:42:14 PM 36.3586 -78.2356 223° Southwest 166 191 10,000  Level Washington Center
Wed 02:42:41 PM 36.3436 -78.2481 214° Southwest 167 192 10,000  Level Washington Center
Wed 02:43:15 PM 36.3222 -78.2731 223° Southwest 163 188 10,000 -98 Level Washington Center
Wed 02:43:42 PM 36.3094 -78.2856 218° Southwest 167 192 9,900  Descending Washington Center
Wed 02:44:16 PM 36.2900 -78.3081 223° Southwest 164 189 10,000  Climbing Washington Center
Wed 02:44:43 PM 36.2731 -78.3231 216° Southwest 167 192 9,900  Descending Washington Center
Wed 02:45:23 PM 36.2475 -78.3503 221° Southwest 163 188 10,000  Climbing Washington Center
Wed 02:45:41 PM 36.2389 -78.3578 215° Southwest 167 192 9,900  Descending Washington Center
Wed 02:46:24 PM 36.2111 -78.3853 219° Southwest 162 186 10,000  Climbing Washington Center
Wed 02:46:43 PM 36.2047 -78.3928 223° Southwest 167 192 9,900  Descending Washington Center
Wed 02:47:25 PM 36.1789 -78.4225 223° Southwest 164 189 10,000  Climbing Washington Center
Wed 02:47:43 PM 36.1703 -78.4325 223° Southwest 167 192 9,900  Descending Washington Center
Wed 02:48:26 PM 36.1428 -78.4572 216° Southwest 165 190 10,000 55 Climbing Washington Center
Wed 02:49:33 PM 36.1083 -78.4997 225° Southwest 166 191 10,000 -248 Level Washington Center
Wed 02:50:27 PM 36.0719 -78.5344 218° Southwest 169 194 9,500 -522 Descending Washington Center
Wed 02:51:28 PM 36.0333 -78.5767 221° Southwest 178 205 9,000 -246 Descending Washington Center
Wed 02:52:29 PM 35.9969 -78.6139 220° Southwest 169 194 9,000  Level Washington Center
Wed 02:53:29 PM 35.9647 -78.6486 221° Southwest 153 176 9,000  Level Washington Center
Wed 02:54:30 PM 35.9325 -78.6831 221° Southwest 152 175 9,000  Level Washington Center
Wed 02:55:30 PM 35.8983 -78.7153 217° Southwest 158 182 9,000 -99 Level Washington Center
Wed 02:56:31 PM 35.8619 -78.7522 219° Southwest 165 190 8,800 -344 Descending Washington Center
Wed 02:57:32 PM 35.8253 -78.7917 221° Southwest 181 208 8,300 -375 Descending Washington Center
Wed 02:58:39 PM 35.7825 -78.8361 220° Southwest 170 196 8,000 -328 Descending Washington Center
Wed 02:59:40 PM 35.7481 -78.8706 219° Southwest 159 183 7,600 -417 Descending Washington Center
Wed 03:00:34 PM 35.7158 -78.9050 221° Southwest 164 189 7,200 -444 Descending Washington Center
Wed 03:02:00 PM 35.6591 -78.9409 219° Southwest  Level FlightAware Approximate
Wed 03:09:00 PM 35.4269 -79.1731 219° Southwest  Level FlightAware Approximate
Wed 03:10:00 PM 35.3937 -79.2064 219° Southwest  Level FlightAware Approximate
Wed 03:11:00 PM 35.3604 -79.2397 219° Southwest  Level FlightAware Approximate
Wed 03:12:00 PM 35.3272 -79.2729 219° Southwest  Level FlightAware Approximate
Wed 03:13:00 PM 35.2939 -79.3061 219° Southwest  Level FlightAware Approximate
Wed 03:14:00 PM 35.2618 -79.3407 231° Southwest  Level FlightAware Approximate
Wed 03:15:00 PM 35.2347 -79.3813 231° Southwest  Level FlightAware Approximate
Wed 03:16:00 PM 35.2374 -79.3890 231° Southwest  Level Estimated
Wed 03:17:00 PM 35.2333 -79.3833 231° Southwest  Level FlightAware Approximate
Wed 03:18:00 PM 35.2374 -79.3890 321° Northwest  Level Estimated

Login

Don't have an account? Register now (free) for customized features, flight alerts, and more!